Time;durP1;ratioP1;P1;durP2;ratioP2;P2;SDS_P1;SDS_P2;PMS_P1;PMS_P2;Temp;Humidity;BMP_temperature;BMP_pressure;BME280_temperature;BME280_humidity;BME280_pressure;Samples;Min_cycle;Max_cycle;Signal;HPM_P1;HPM_P2
2021/01/25 00:02:09;;;;;;;4.40;2.90;;;;;;;2.39;46.18;99435.44;5054328;28;20116;-68
2021/01/25 00:04:46;;;;;;;5.40;3.00;;;;;;;2.39;46.08;99432.75;5060653;28;20049;-68
2021/01/25 00:07:13;;;;;;;5.00;2.80;;;;;;;2.38;45.68;99445.38;5049838;28;20048;-68
2021/01/25 00:09:42;;;;;;;5.82;2.95;;;;;;;2.39;46.04;99440.84;5046747;28;20053;-68
2021/01/25 00:12:29;;;;;;;4.68;2.92;;;;;;;2.38;45.79;99442.66;5040981;28;20041;-68
2021/01/25 00:15:16;;;;;;;5.68;2.72;;;;;;;2.39;45.92;99439.00;5059238;28;20439;-68
2021/01/25 00:17:44;;;;;;;5.70;2.80;;;;;;;2.40;45.94;99437.16;5049540;28;20052;-68
2021/01/25 00:20:14;;;;;;;6.40;3.13;;;;;;;2.41;46.14;99439.75;5057669;28;20125;-68
2021/01/25 00:22:42;;;;;;;4.10;2.60;;;;;;;2.41;46.02;99433.50;5067281;28;20037;-68
2021/01/25 00:25:09;;;;;;;5.72;3.00;;;;;;;2.43;46.25;99439.63;5061314;28;20041;-68
2021/01/25 00:27:36;;;;;;;4.88;3.10;;;;;;;2.41;45.98;99433.50;5052499;28;20649;-68
2021/01/25 00:30:05;;;;;;;5.13;3.25;;;;;;;2.43;46.26;99443.19;5062847;28;20454;-68
2021/01/25 00:32:33;;;;;;;4.93;2.65;;;;;;;2.41;45.90;99431.66;5053602;28;20043;-68
2021/01/25 00:35:00;;;;;;;6.38;3.10;;;;;;;2.42;45.88;99438.78;5063168;28;20404;-68
2021/01/25 00:37:30;;;;;;;5.47;3.10;;;;;;;2.43;45.86;99436.94;5052011;28;20032;-68
2021/01/25 00:39:57;;;;;;;5.72;2.88;;;;;;;2.41;45.84;99430.78;5053748;28;20037;-68
2021/01/25 00:42:24;;;;;;;4.82;2.97;;;;;;;2.40;46.07;99429.94;5053489;28;20098;-68
2021/01/25 00:44:51;;;;;;;4.53;2.60;;;;;;;2.40;45.90;99431.75;5061731;28;20048;-68
2021/01/25 00:47:19;;;;;;;7.07;3.40;;;;;;;2.39;45.84;99430.91;5051914;28;20163;-68
2021/01/25 00:49:47;;;;;;;4.88;2.58;;;;;;;2.39;45.87;99432.75;5060325;28;20068;-68
2021/01/25 00:52:14;;;;;;;5.65;2.78;;;;;;;2.39;46.01;99430.03;5053203;28;20487;-68
2021/01/25 00:54:42;;;;;;;5.68;2.92;;;;;;;2.40;46.11;99429.06;5059063;28;20049;-68
2021/01/25 00:57:09;;;;;;;4.53;2.85;;;;;;;2.39;45.81;99432.75;5053120;28;20124;-68
2021/01/25 00:59:36;;;;;;;5.25;2.70;;;;;;;2.39;45.97;99432.75;5040818;28;20049;-68
2021/01/25 01:02:03;;;;;;;5.70;2.95;;;;;;;2.39;46.10;99427.34;5051863;28;20041;-68
2021/01/25 01:04:31;;;;;;;5.93;2.75;;;;;;;2.39;46.19;99433.59;5058356;28;20036;-68
2021/01/25 01:06:58;;;;;;;4.68;2.70;;;;;;;2.40;45.92;99434.47;5052916;28;20087;-68
2021/01/25 01:09:25;;;;;;;5.60;3.10;;;;;;;2.40;46.33;99437.16;5057817;28;20056;-68
2021/01/25 01:11:53;;;;;;;4.85;2.80;;;;;;;2.41;46.02;99438.88;5058296;28;20069;-68
2021/01/25 01:14:20;;;;;;;5.50;2.97;;;;;;;2.40;46.06;99440.72;5056554;28;20044;-68
2021/01/25 01:16:48;;;;;;;5.25;2.70;;;;;;;2.40;46.20;99442.56;5052812;28;20064;-68
2021/01/25 01:19:15;;;;;;;7.47;2.83;;;;;;;2.41;46.30;99452.38;5056593;28;20101;-68
2021/01/25 01:21:42;;;;;;;5.72;3.05;;;;;;;2.41;46.05;99444.28;5052842;28;20049;-69
2021/01/25 01:24:09;;;;;;;5.25;2.95;;;;;;;2.42;46.00;99452.28;5056575;28;20068;-69
2021/01/25 01:26:36;;;;;;;4.85;2.45;;;;;;;2.41;46.36;99445.16;5052736;28;20061;-68
2021/01/25 01:29:04;;;;;;;5.47;2.92;;;;;;;2.43;46.20;99442.34;5054113;28;20131;-68
2021/01/25 01:31:31;;;;;;;5.00;2.67;;;;;;;2.42;46.10;99449.56;5052363;28;20064;-68
2021/01/25 01:33:58;;;;;;;6.07;3.20;;;;;;;2.41;46.29;99449.69;5054007;28;20069;-68
2021/01/25 01:36:26;;;;;;;5.13;2.88;;;;;;;2.43;46.38;99442.34;5046398;28;20546;-68
2021/01/25 01:38:53;;;;;;;5.28;3.00;;;;;;;2.41;46.04;99445.16;5053153;28;20400;-68
2021/01/25 01:41:21;;;;;;;5.03;2.53;;;;;;;2.40;46.32;99443.41;5052505;28;20481;-68
2021/01/25 01:43:48;;;;;;;4.82;2.50;;;;;;;2.42;46.04;99444.19;5052066;28;20041;-68
2021/01/25 01:46:16;;;;;;;4.25;2.60;;;;;;;2.42;46.13;99444.19;5052228;28;20061;-68
2021/01/25 01:48:43;;;;;;;4.38;2.67;;;;;;;2.41;46.18;99430.78;5049288;28;20045;-68
2021/01/25 01:51:11;;;;;;;4.63;2.88;;;;;;;2.42;46.03;99435.22;5038233;28;20053;-68
2021/01/25 01:53:38;;;;;;;3.85;2.53;;;;;;;2.42;46.25;99436.09;5052315;28;20377;-68
2021/01/25 01:56:06;;;;;;;5.10;2.40;;;;;;;2.42;45.88;99438.78;5065831;28;20041;-69
2021/01/25 01:58:33;;;;;;;4.72;2.20;;;;;;;2.42;46.06;99436.09;5050613;28;20043;-68
2021/01/25 02:01:00;;;;;;;6.05;2.80;;;;;;;2.42;46.16;99436.09;5038845;28;20044;-68
2021/01/25 02:03:28;;;;;;;4.88;2.60;;;;;;;2.43;46.36;99439.63;5056370;28;20045;-68
2021/01/25 02:05:58;;;;;;;5.15;2.50;;;;;;;2.43;46.12;99445.91;5060417;28;20047;-68
2021/01/25 02:08:25;;;;;;;4.65;2.58;;;;;;;2.43;46.53;99448.59;5051988;28;20044;-68
2021/01/25 02:10:56;;;;;;;5.15;2.80;;;;;;;2.43;46.11;99443.19;5053983;28;20069;-68
2021/01/25 02:13:25;;;;;;;3.95;2.60;;;;;;;2.43;46.07;99445.03;5052349;28;20052;-68
2021/01/25 02:15:53;;;;;;;4.78;2.65;;;;;;;2.42;46.06;99446.88;5062950;28;20048;-68
2021/01/25 02:18:20;;;;;;;5.53;2.80;;;;;;;2.43;46.18;99443.19;5051703;28;20484;-68
2021/01/25 02:20:48;;;;;;;3.97;2.55;;;;;;;2.44;46.33;99444.06;5063302;28;20043;-68
2021/01/25 02:23:46;;;;;;;3.80;2.20;;;;;;;2.44;46.25;99444.06;5056211;28;20064;-68
2021/01/25 02:26:21;;;;;;;4.65;2.42;;;;;;;2.41;46.36;99445.16;5056816;28;20084;-68
2021/01/25 02:28:50;;;;;;;4.88;2.50;;;;;;;2.41;46.22;99450.53;5055475;28;20049;-68
2021/01/25 02:31:18;;;;;;;3.30;2.20;;;;;;;2.41;46.15;99446.97;5064803;28;20048;-68
2021/01/25 02:33:48;;;;;;;4.47;2.42;;;;;;;2.42;46.38;99452.28;5056185;28;20052;-68
2021/01/25 02:36:16;;;;;;;4.43;2.00;;;;;;;2.42;46.10;99454.97;5060568;28;20057;-68
2021/01/25 02:38:46;;;;;;;4.18;2.47;;;;;;;2.43;46.53;99456.69;5054083;28;20090;-68
2021/01/25 02:41:15;;;;;;;4.68;2.30;;;;;;;2.43;46.63;99456.69;5064629;28;20063;-69
2021/01/25 02:43:44;;;;;;;5.10;2.28;;;;;;;2.43;46.26;99458.53;5055703;28;20055;-68
2021/01/25 02:46:13;;;;;;;3.78;1.98;;;;;;;2.43;46.27;99459.41;5063815;28;20044;-68
2021/01/25 02:48:40;;;;;;;3.97;2.30;;;;;;;2.42;46.34;99454.97;5055132;28;20044;-68
2021/01/25 02:51:08;;;;;;;4.63;2.20;;;;;;;2.41;46.42;99455.94;5062759;28;20036;-68
2021/01/25 02:53:35;;;;;;;3.70;2.22;;;;;;;2.42;46.41;99446.88;5055570;28;20041;-68
2021/01/25 02:56:02;;;;;;;4.05;2.28;;;;;;;2.42;46.27;99457.66;5060527;28;20048;-69
2021/01/25 02:58:30;;;;;;;4.90;2.60;;;;;;;2.42;46.44;99456.81;5043209;28;20649;-68
2021/01/25 03:00:58;;;;;;;3.58;2.00;;;;;;;2.43;46.42;99448.59;5060382;28;20036;-68
2021/01/25 03:03:28;;;;;;;5.13;2.47;;;;;;;2.45;46.48;99459.28;5053872;28;20691;-68
2021/01/25 03:05:56;;;;;;;4.53;2.60;;;;;;;2.43;46.19;99459.41;5056681;28;20036;-68
2021/01/25 03:08:26;;;;;;;4.72;1.95;;;;;;;2.44;46.26;99461.13;5054665;28;20051;-68
2021/01/25 03:10:54;;;;;;;4.18;2.08;;;;;;;2.44;46.40;99458.41;5055820;28;20041;-68
2021/01/25 03:13:25;;;;;;;4.47;2.30;;;;;;;2.46;46.33;99461.88;5053760;28;20519;-68
2021/01/25 03:15:55;;;;;;;3.90;2.03;;;;;;;2.44;46.60;99458.41;5059729;28;20446;-68
2021/01/25 03:18:23;;;;;;;4.53;2.13;;;;;;;2.45;46.22;99462.00;5053774;28;20135;-68
2021/01/25 03:20:52;;;;;;;3.78;2.20;;;;;;;2.45;46.59;99460.16;5056845;28;20059;-68
2021/01/25 03:23:20;;;;;;;3.85;2.35;;;;;;;2.45;46.47;99459.28;5054203;28;20037;-68
2021/01/25 03:25:47;;;;;;;4.55;2.38;;;;;;;2.45;46.14;99449.34;5056229;28;20045;-68
2021/01/25 03:28:15;;;;;;;4.38;2.17;;;;;;;2.45;46.26;99454.75;5055444;28;20455;-68
2021/01/25 03:30:42;;;;;;;3.60;2.10;;;;;;;2.44;46.48;99458.41;5053702;28;20447;-68
2021/01/25 03:33:10;;;;;;;4.30;2.00;;;;;;;2.44;46.51;99457.56;5053970;28;20044;-68
2021/01/25 03:35:37;;;;;;;4.43;1.90;;;;;;;2.44;46.41;99462.97;5054071;28;20384;-68
2021/01/25 03:38:05;;;;;;;3.97;2.13;;;;;;;2.45;46.31;99470.94;5056346;28;20068;-68
2021/01/25 03:40:33;;;;;;;4.40;2.08;;;;;;;2.44;46.31;99471.91;5052875;28;20048;-68
2021/01/25 03:43:00;;;;;;;3.42;2.20;;;;;;;2.44;46.30;99469.22;5055372;28;20380;-68
2021/01/25 03:45:29;;;;;;;4.32;2.40;;;;;;;2.46;46.40;99474.50;5054319;28;20044;-68
2021/01/25 03:47:57;;;;;;;3.70;2.10;;;;;;;2.46;46.57;99479.91;5054020;28;20061;-68
2021/01/25 03:50:24;;;;;;;3.40;2.10;;;;;;;2.45;46.59;99476.34;5052539;28;20045;-68
2021/01/25 03:52:51;;;;;;;3.53;2.03;;;;;;;2.45;46.72;99475.47;5052394;28;20044;-68
2021/01/25 03:55:19;;;;;;;3.28;1.98;;;;;;;2.47;46.27;99482.47;5054346;28;20048;-68
2021/01/25 03:57:46;;;;;;;4.03;2.10;;;;;;;2.46;46.38;99474.50;5067925;28;20411;-68
2021/01/25 04:00:14;;;;;;;3.75;2.10;;;;;;;2.46;46.40;99483.47;5053308;28;20425;-69
2021/01/25 04:02:41;;;;;;;3.72;2.10;;;;;;;2.46;46.53;99488.00;5050091;28;20055;-69
2021/01/25 04:05:10;;;;;;;3.70;2.17;;;;;;;2.46;46.58;99488.88;5050221;28;20519;-68
2021/01/25 04:07:37;;;;;;;4.13;2.30;;;;;;;2.46;46.52;99490.69;5047918;28;20060;-68
2021/01/25 04:10:05;;;;;;;4.10;2.15;;;;;;;2.47;46.61;99492.41;5048841;28;20041;-68
2021/01/25 04:12:34;;;;;;;4.13;2.17;;;;;;;2.47;46.82;99495.09;5049667;28;20041;-68
2021/01/25 04:15:06;;;;;;;4.50;2.22;;;;;;;2.46;46.47;99502.38;5050736;28;20111;-68
2021/01/25 04:17:36;;;;;;;4.15;2.53;;;;;;;2.47;46.64;99492.41;5050092;28;21523;-68
2021/01/25 04:20:04;;;;;;;5.13;2.45;;;;;;;2.46;46.69;99502.38;5047847;28;20400;-68
2021/01/25 04:22:32;;;;;;;3.83;2.38;;;;;;;2.46;46.83;99493.41;5048530;28;20507;-69
2021/01/25 04:24:59;;;;;;;3.97;2.40;;;;;;;2.46;46.78;99498.81;5050169;28;20037;-68
2021/01/25 04:27:26;;;;;;;3.97;2.40;;;;;;;2.46;46.53;99496.97;5049075;28;20047;-68
2021/01/25 04:29:54;;;;;;;4.25;2.28;;;;;;;2.47;46.62;99509.47;5047593;28;20041;-68
2021/01/25 04:32:24;;;;;;;4.30;2.38;;;;;;;2.46;46.91;99501.50;5049824;28;20029;-68
2021/01/25 04:34:51;;;;;;;4.57;2.40;;;;;;;2.46;46.64;99501.50;5048643;28;20167;-68
2021/01/25 04:37:19;;;;;;;3.90;2.22;;;;;;;2.46;46.70;99502.38;5050053;28;20039;-68
2021/01/25 04:39:46;;;;;;;4.68;2.85;;;;;;;2.46;46.61;99504.19;5049260;28;20049;-68
2021/01/25 04:42:14;;;;;;;4.20;2.35;;;;;;;2.45;46.74;99511.44;5056819;28;20039;-68
2021/01/25 04:44:41;;;;;;;4.22;2.78;;;;;;;2.45;46.63;99511.44;5055718;28;20053;-68
2021/01/25 04:47:10;;;;;;;4.90;2.78;;;;;;;2.46;46.90;99517.69;5051526;28;20044;-68
2021/01/25 04:49:41;;;;;;;4.40;2.72;;;;;;;2.45;46.61;99511.44;5050695;28;20139;-68
2021/01/25 04:52:10;;;;;;;5.25;2.70;;;;;;;2.44;46.54;99520.50;5054804;28;20041;-68
2021/01/25 04:54:38;;;;;;;4.25;2.50;;;;;;;2.45;46.68;99515.97;5053692;28;20106;-68
2021/01/25 04:57:06;;;;;;;4.25;2.88;;;;;;;2.44;46.78;99517.81;5052520;28;20049;-68
2021/01/25 04:59:36;;;;;;;4.85;2.60;;;;;;;2.44;46.85;99525.03;5053344;28;20477;-68
2021/01/25 05:02:03;;;;;;;4.40;2.70;;;;;;;2.42;46.81;99522.44;5052976;28;20514;-69
2021/01/25 05:04:33;;;;;;;3.88;2.55;;;;;;;2.43;46.95;99526.88;5047458;28;20083;-69
2021/01/25 05:07:00;;;;;;;5.15;2.47;;;;;;;2.41;46.64;99530.66;5052305;28;20075;-68
2021/01/25 05:09:28;;;;;;;4.70;2.95;;;;;;;2.41;47.09;99534.22;5055157;28;20041;-68
2021/01/25 05:11:58;;;;;;;3.90;2.50;;;;;;;2.44;47.15;99541.22;5049636;28;20473;-68
2021/01/25 05:14:37;;;;;;;6.05;2.58;;;;;;;2.44;47.31;99538.53;5056645;28;20045;-68
2021/01/25 05:17:08;;;;;;;5.30;2.90;;;;;;;2.43;47.05;99547.59;5051796;28;20045;-68
2021/01/25 05:19:38;;;;;;;4.20;2.75;;;;;;;2.42;47.19;99549.44;5055542;28;20053;-68
2021/01/25 05:22:13;;;;;;;4.78;2.67;;;;;;;2.43;47.28;99555.69;5036851;28;20069;-68
2021/01/25 05:24:45;;;;;;;4.75;3.30;;;;;;;2.43;47.01;99556.56;5056058;28;20128;-68
2021/01/25 05:27:24;;;;;;;5.13;2.75;;;;;;;2.44;47.22;99562.81;5052363;28;20098;-68
2021/01/25 05:29:51;;;;;;;4.65;2.67;;;;;;;2.40;46.91;99556.78;5054419;28;20072;-68
2021/01/25 05:32:19;;;;;;;4.75;2.88;;;;;;;2.43;46.94;99558.38;5049463;28;20045;-68
2021/01/25 05:34:48;;;;;;;5.03;3.13;;;;;;;2.44;47.17;99554.72;5053888;28;20045;-68
2021/01/25 05:37:16;;;;;;;4.75;2.63;;;;;;;2.44;46.97;99562.81;5050995;28;20052;-68
2021/01/25 05:39:45;;;;;;;5.07;3.20;;;;;;;2.44;47.01;99560.13;5053609;28;20037;-68
2021/01/25 05:42:13;;;;;;;4.22;2.67;;;;;;;2.45;47.17;99564.53;5052256;28;20049;-68
2021/01/25 05:44:42;;;;;;;5.72;3.47;;;;;;;2.45;47.17;99559.16;5052689;28;20051;-68
2021/01/25 05:47:11;;;;;;;6.88;3.53;;;;;;;2.45;46.92;99560.00;5039467;28;20037;-68
2021/01/25 05:49:38;;;;;;;4.70;3.10;;;;;;;2.44;47.15;99566.38;5043907;28;20098;-68
2021/01/25 05:52:06;;;;;;;6.32;3.10;;;;;;;2.45;47.31;99570.81;5045254;28;24513;-68
2021/01/25 05:54:34;;;;;;;6.07;3.40;;;;;;;2.44;46.96;99566.38;5053774;28;20064;-67
2021/01/25 05:57:01;;;;;;;4.82;3.05;;;;;;;2.45;47.31;99575.34;5054774;28;20048;-67
2021/01/25 05:59:29;;;;;;;5.57;3.25;;;;;;;2.44;46.93;99576.31;5050900;28;20043;-67
2021/01/25 06:02:01;;;;;;;6.82;3.10;;;;;;;2.44;47.27;99571.78;5055065;28;20099;-68
2021/01/25 06:04:29;;;;;;;4.75;3.03;;;;;;;2.40;47.18;99578.34;5050284;28;20123;-68
2021/01/25 06:07:02;;;;;;;5.55;3.30;;;;;;;2.42;47.67;99579.13;5052876;28;20049;-68
2021/01/25 06:09:41;;;;;;;6.00;3.08;;;;;;;2.43;47.55;99591.66;5050988;28;20048;-68
2021/01/25 06:12:08;;;;;;;5.57;3.20;;;;;;;2.41;47.55;99592.72;5052622;28;20045;-68
2021/01/25 06:14:43;;;;;;;6.00;3.30;;;;;;;2.44;47.49;99600.59;5058208;28;20125;-68
2021/01/25 06:17:14;;;;;;;5.90;3.45;;;;;;;2.41;47.59;99598.97;5055719;28;20065;-68
2021/01/25 06:19:43;;;;;;;5.25;3.35;;;;;;;2.42;47.49;99608.81;5047921;28;20041;-68
2021/01/25 06:22:11;;;;;;;6.28;3.33;;;;;;;2.43;47.50;99613.22;5054926;28;20506;-67
2021/01/25 06:24:42;;;;;;;6.60;3.80;;;;;;;2.45;47.70;99607.72;5050081;28;20140;-68
2021/01/25 06:27:14;;;;;;;5.60;2.97;;;;;;;2.45;47.62;99613.13;5060198;28;20056;-68
2021/01/25 06:29:43;;;;;;;5.95;3.38;;;;;;;2.41;47.48;99609.78;5049807;28;20045;-68
2021/01/25 06:32:10;;;;;;;6.18;3.60;;;;;;;2.43;47.19;99618.63;5050892;28;20443;-68
2021/01/25 06:34:38;;;;;;;5.78;3.90;;;;;;;2.43;47.37;99624.03;5055653;28;20036;-68
2021/01/25 06:37:09;;;;;;;5.72;3.38;;;;;;;2.44;47.70;99625.75;5055378;28;20128;-68
2021/01/25 06:39:44;;;;;;;5.87;3.60;;;;;;;2.44;48.02;99633.00;5048322;28;20124;-68
2021/01/25 06:42:15;;;;;;;4.65;3.42;;;;;;;2.44;47.55;99647.34;5048088;28;20502;-68
2021/01/25 06:44:45;;;;;;;6.68;3.90;;;;;;;2.42;47.27;99646.59;5042467;28;20040;-68
2021/01/25 06:47:18;;;;;;;6.50;3.80;;;;;;;2.44;47.65;99641.94;5045933;28;20039;-68
2021/01/25 06:49:46;;;;;;;6.50;3.50;;;;;;;2.41;47.70;99644.00;5045120;28;20075;-68
2021/01/25 06:52:14;;;;;;;6.95;4.25;;;;;;;2.42;47.25;99646.59;5058072;28;20044;-68
2021/01/25 06:54:44;;;;;;;5.60;3.50;;;;;;;2.43;47.58;99651.03;5059370;28;20095;-68
2021/01/25 06:57:22;;;;;;;5.63;3.40;;;;;;;2.44;47.65;99660.84;5049502;28;20079;-68
2021/01/25 06:59:51;;;;;;;6.43;3.67;;;;;;;2.41;47.44;99661.06;5052021;28;20056;-69
2021/01/25 07:02:20;;;;;;;6.82;3.78;;;;;;;2.41;47.58;99666.44;5064639;28;20045;-68
2021/01/25 07:04:50;;;;;;;5.68;3.80;;;;;;;2.38;47.41;99672.06;5044277;28;20049;-69
2021/01/25 07:07:23;;;;;;;5.93;3.90;;;;;;;2.41;47.42;99677.25;5050426;28;20045;-69
2021/01/25 07:09:53;;;;;;;6.60;3.75;;;;;;;2.38;47.73;99679.31;5052036;28;20052;-69
2021/01/25 07:12:22;;;;;;;5.50;3.45;;;;;;;2.39;47.66;99686.41;5049155;28;20060;-68
2021/01/25 07:14:51;;;;;;;6.55;4.00;;;;;;;2.37;47.78;99691.94;5052094;28;20039;-69
2021/01/25 07:17:19;;;;;;;5.93;3.58;;;;;;;2.37;47.81;99702.75;5050149;28;20037;-69
2021/01/25 07:19:46;;;;;;;6.70;4.13;;;;;;;2.38;47.65;99709.00;5048414;28;20529;-68
2021/01/25 07:22:15;;;;;;;6.38;4.00;;;;;;;2.39;47.83;99705.31;5052507;28;20041;-68
2021/01/25 07:24:43;;;;;;;5.68;3.90;;;;;;;2.38;47.82;99717.94;5051285;28;20467;-69
2021/01/25 07:27:11;;;;;;;8.07;4.22;;;;;;;2.40;47.67;99718.69;5051256;28;20044;-68
2021/01/25 07:29:38;;;;;;;6.90;4.20;;;;;;;2.40;47.80;99721.41;5049654;28;20391;-68
2021/01/25 07:32:05;;;;;;;7.10;4.50;;;;;;;2.40;47.91;99729.50;5048391;28;20106;-69
2021/01/25 07:34:33;;;;;;;7.03;3.75;;;;;;;2.41;47.76;99727.66;5050072;28;20044;-69
2021/01/25 07:37:00;;;;;;;6.85;4.05;;;;;;;2.42;47.68;99734.78;5051511;28;20064;-69
2021/01/25 07:39:29;;;;;;;6.60;4.03;;;;;;;2.41;47.50;99741.16;5051146;28;20099;-69
2021/01/25 07:41:57;;;;;;;6.47;4.07;;;;;;;2.42;47.72;99741.06;5051182;28;20123;-69
2021/01/25 07:44:25;;;;;;;6.18;4.03;;;;;;;2.43;47.69;99756.28;5050756;28;20041;-68
2021/01/25 07:47:03;;;;;;;6.85;4.53;;;;;;;2.44;47.98;99752.63;5050374;28;20120;-69
2021/01/25 07:49:31;;;;;;;6.47;3.72;;;;;;;2.42;47.97;99762.66;5049664;28;20380;-68
2021/01/25 07:51:58;;;;;;;6.88;4.28;;;;;;;2.43;47.84;99761.69;5049825;28;20115;-68
2021/01/25 07:54:30;;;;;;;7.00;3.97;;;;;;;2.47;47.98;99773.09;5049759;28;20041;-68
2021/01/25 07:56:59;;;;;;;6.38;4.10;;;;;;;2.43;48.08;99777.88;5060231;28;20032;-68
2021/01/25 07:59:34;;;;;;;9.20;4.30;;;;;;;2.48;48.37;99786.50;5056820;28;20131;-69
2021/01/25 08:02:04;;;;;;;7.43;4.20;;;;;;;2.46;48.22;99785.78;5054010;28;20041;-69
2021/01/25 08:04:36;;;;;;;6.43;3.95;;;;;;;2.49;47.77;99782.84;5050266;28;20044;-68
2021/01/25 08:07:04;;;;;;;7.25;4.63;;;;;;;2.49;48.28;99788.22;5052758;28;20502;-69
2021/01/25 08:09:37;;;;;;;6.72;4.32;;;;;;;2.51;47.78;99794.41;5064033;28;20041;-69
2021/01/25 08:12:05;;;;;;;;;;;;;;;2.30;48.65;99797.72;5051433;28;20117;-69
2021/01/25 08:14:40;;;;;;;;;;;;;;;2.26;48.67;99788.09;5054785;28;19921;-69
2021/01/25 08:17:10;;;;;;;7.32;4.13;;;;;;;2.46;47.86;99796.56;5048867;28;20019;-69
2021/01/25 08:19:44;;;;;;;7.25;4.28;;;;;;;2.51;48.33;99799.78;5047775;28;20048;-69
2021/01/25 08:22:16;;;;;;;7.32;4.18;;;;;;;2.53;48.16;99805.09;5048074;28;20096;-69
2021/01/25 08:24:53;;;;;;;6.75;4.22;;;;;;;2.55;48.19;99811.22;5049259;28;20036;-70
2021/01/25 08:27:20;;;;;;;8.77;4.43;;;;;;;2.54;47.85;99812.22;5042637;28;20055;-69
2021/01/25 08:30:01;;;;;;;7.70;4.60;;;;;;;2.58;48.37;99810.16;5052299;28;20040;-69
2021/01/25 08:32:38;;;;;;;9.88;5.40;;;;;;;2.55;47.99;99816.63;5059221;28;20668;-70
2021/01/25 08:35:08;;;;;;;7.38;4.70;;;;;;;2.55;47.61;99819.31;5055227;28;20037;-69
2021/01/25 08:37:36;;;;;;;8.18;5.18;;;;;;;2.54;48.05;99820.31;5046299;28;20045;-69
2021/01/25 08:40:22;;;;;;;9.45;5.20;;;;;;;2.54;48.22;99829.28;5055114;28;20041;-70
2021/01/25 08:42:49;;;;;;;10.00;5.18;;;;;;;2.51;47.93;99832.19;5054474;28;20045;-69
2021/01/25 08:45:26;;;;;;;9.50;5.40;;;;;;;2.55;48.21;99838.22;5059033;28;22070;-70
2021/01/25 08:48:02;;;;;;;8.88;4.60;;;;;;;2.55;48.48;99854.41;5034249;28;20048;-69
2021/01/25 08:50:30;;;;;;;7.35;4.47;;;;;;;2.53;48.05;99851.84;5045652;28;20029;-69
2021/01/25 08:52:59;;;;;;;7.28;4.65;;;;;;;2.55;48.09;99866.09;5050216;28;20484;-70
2021/01/25 08:55:35;;;;;;;7.72;4.90;;;;;;;2.57;48.43;99871.38;5052040;28;20045;-69
2021/01/25 08:58:02;;;;;;;8.15;4.43;;;;;;;2.57;48.10;99871.38;5053551;28;20452;-69
2021/01/25 09:00:37;;;;;;;7.38;4.20;;;;;;;2.61;48.67;99867.53;5051888;28;20491;-70
2021/01/25 09:03:06;;;;;;;7.43;4.13;;;;;;;2.61;48.41;99875.63;5047079;28;20063;-69
2021/01/25 09:05:33;;;;;;;7.80;4.97;;;;;;;2.62;48.17;99873.78;5039823;28;20041;-69
2021/01/25 09:08:00;;;;;;;8.95;5.60;;;;;;;2.63;48.42;99879.06;5048602;28;20089;-70
2021/01/25 09:10:28;;;;;;;8.55;4.88;;;;;;;2.65;48.26;99885.22;5045749;28;20037;-69
2021/01/25 09:12:56;;;;;;;6.57;4.57;;;;;;;2.67;48.13;99893.22;5046649;28;20039;-69
2021/01/25 09:15:25;;;;;;;8.95;4.88;;;;;;;2.66;48.09;99889.66;5049198;28;20049;-69
2021/01/25 09:17:54;;;;;;;7.15;4.40;;;;;;;2.70;48.19;99903.81;5048061;28;20098;-70
2021/01/25 09:20:21;;;;;;;7.40;4.72;;;;;;;2.70;48.08;99902.00;5030841;28;20477;-70
2021/01/25 09:22:51;;;;;;;6.85;4.63;;;;;;;2.71;48.45;99903.69;5050892;28;20029;-69
2021/01/25 09:25:20;;;;;;;7.97;4.75;;;;;;;2.74;48.26;99918.81;5051523;28;20091;-70
2021/01/25 09:27:47;;;;;;;8.18;4.93;;;;;;;2.74;48.33;99913.44;5052553;28;20530;-70
2021/01/25 09:30:17;;;;;;;8.90;4.63;;;;;;;2.76;48.11;99914.19;5048241;28;20044;-70
2021/01/25 09:32:46;;;;;;;7.75;4.57;;;;;;;2.76;48.10;99923.16;5055877;28;20123;-70
2021/01/25 09:35:17;;;;;;;7.18;4.72;;;;;;;2.79;48.46;99928.38;5052452;28;20042;-70
2021/01/25 09:37:44;;;;;;;8.00;4.78;;;;;;;2.79;48.57;99936.47;5049234;28;20040;-70
2021/01/25 09:40:13;;;;;;;7.75;4.38;;;;;;;2.82;48.26;99929.97;5048896;28;20133;-70
2021/01/25 09:42:41;;;;;;;7.85;4.80;;;;;;;2.83;48.39;99937.97;5056280;28;20055;-71
2021/01/25 09:45:11;;;;;;;8.93;5.00;;;;;;;2.84;48.10;99937.00;5048755;28;20083;-69
2021/01/25 09:47:38;;;;;;;8.13;4.95;;;;;;;2.85;48.02;99940.56;5048734;28;20044;-70
2021/01/25 09:50:13;;;;;;;8.63;4.70;;;;;;;2.88;48.21;99940.34;5048132;28;20124;-70
2021/01/25 09:52:42;;;;;;;7.93;4.80;;;;;;;2.87;47.97;99944.03;5054188;28;20041;-71
2021/01/25 09:55:11;;;;;;;7.30;4.45;;;;;;;2.87;47.92;99944.91;5041825;28;20057;-70
2021/01/25 09:57:38;;;;;;;7.05;4.43;;;;;;;2.87;47.88;99954.84;5048425;28;20044;-70
2021/01/25 10:00:07;;;;;;;9.18;5.22;;;;;;;2.87;48.01;99961.09;5045922;28;20052;-70
2021/01/25 10:02:35;;;;;;;7.95;4.80;;;;;;;2.87;48.12;99963.81;5049382;28;20127;-71
2021/01/25 10:05:03;;;;;;;7.72;4.93;;;;;;;2.89;48.05;99971.78;5047397;28;20056;-72
2021/01/25 10:07:34;;;;;;;8.05;5.00;;;;;;;2.89;48.21;99969.94;5047097;28;20534;-70
2021/01/25 10:10:06;;;;;;;8.23;5.32;;;;;;;2.92;48.15;99987.78;5051375;28;20044;-70
2021/01/25 10:12:33;;;;;;;8.90;4.90;;;;;;;2.93;48.31;99992.22;5057720;28;20484;-71
2021/01/25 10:15:00;;;;;;;7.53;4.57;;;;;;;2.96;48.27;99997.41;5057024;28;20041;-71
2021/01/25 10:17:29;;;;;;;7.00;4.68;;;;;;;2.99;48.53;100002.59;5050217;28;20048;-74
2021/01/25 10:19:57;;;;;;;7.80;4.78;;;;;;;3.02;48.27;100005.13;5045790;28;20041;-72
2021/01/25 10:22:24;;;;;;;8.13;4.95;;;;;;;3.05;48.28;100004.88;5048320;28;20064;-72
2021/01/25 10:24:51;;;;;;;7.63;4.90;;;;;;;3.09;48.44;100009.13;5048587;28;20271;-72
2021/01/25 10:27:20;;;;;;;8.25;5.25;;;;;;;3.14;48.33;100006.94;5053695;28;20048;-72
2021/01/25 10:29:50;;;;;;;8.23;5.20;;;;;;;3.18;48.61;100013.88;5047298;28;20049;-72
2021/01/25 10:32:18;;;;;;;8.25;5.32;;;;;;;3.21;48.67;100013.66;5045329;28;20107;-72
2021/01/25 10:34:46;;;;;;;7.47;5.07;;;;;;;3.26;48.69;100021.47;5040002;28;20033;-74
2021/01/25 10:37:14;;;;;;;7.68;5.47;;;;;;;3.31;48.68;100033.69;5043007;28;20840;-73
2021/01/25 10:39:41;;;;;;;7.55;5.32;;;;;;;3.37;48.39;100028.84;5040981;28;20037;-72
2021/01/25 10:42:09;;;;;;;8.00;5.82;;;;;;;3.41;48.43;100036.63;5044193;28;20052;-72
2021/01/25 10:44:37;;;;;;;6.88;5.03;;;;;;;3.48;48.08;100040.63;5037515;28;20089;-71
2021/01/25 10:47:04;;;;;;;8.40;4.50;;;;;;;3.51;48.21;100042.25;5040375;28;20172;-71
2021/01/25 10:49:31;;;;;;;7.88;5.30;;;;;;;3.55;48.33;100046.44;5056060;28;20045;-70
2021/01/25 10:51:58;;;;;;;7.85;6.03;;;;;;;3.59;48.15;100056.97;5045041;28;20052;-70
2021/01/25 10:54:26;;;;;;;8.98;5.57;;;;;;;3.64;48.11;100059.38;5048525;28;20483;-71
2021/01/25 10:56:53;;;;;;;10.45;5.80;;;;;;;3.67;48.09;100061.88;5043986;28;20053;-71
2021/01/25 10:59:20;;;;;;;7.40;4.32;;;;;;;3.71;47.99;100071.47;5041640;28;20071;-72
2021/01/25 11:01:49;;;;;;;6.50;4.05;;;;;;;3.76;47.97;100068.47;5050452;28;20503;-72
2021/01/25 11:04:17;;;;;;;7.18;4.85;;;;;;;3.77;47.90;100068.38;5048565;28;20502;-71
2021/01/25 11:06:47;;;;;;;8.52;5.45;;;;;;;3.82;47.58;100068.88;5041156;28;20399;-71
2021/01/25 11:09:15;;;;;;;8.88;5.47;;;;;;;3.84;47.57;100071.50;5044375;28;20053;-70
2021/01/25 11:11:42;;;;;;;8.20;5.28;;;;;;;3.86;47.86;100081.25;5045058;28;20045;-69
2021/01/25 11:14:09;;;;;;;9.93;5.75;;;;;;;3.89;47.62;100080.13;5052775;28;20041;-70
2021/01/25 11:16:36;;;;;;;9.20;5.88;;;;;;;3.92;47.50;100085.34;5050477;28;20186;-70
2021/01/25 11:19:05;;;;;;;8.90;5.53;;;;;;;3.94;47.42;100084.28;5041382;28;20055;-71
2021/01/25 11:21:32;;;;;;;9.63;5.93;;;;;;;3.96;47.32;100090.41;5045479;28;20092;-71
2021/01/25 11:23:59;;;;;;;8.75;6.00;;;;;;;3.98;47.34;100095.72;5039896;28;20033;-71
2021/01/25 11:26:28;;;;;;;9.82;6.00;;;;;;;4.00;47.10;100101.91;5041489;28;20091;-72
2021/01/25 11:28:56;;;;;;;8.90;5.72;;;;;;;3.99;47.16;100102.88;5047599;28;20045;-72
2021/01/25 11:31:23;;;;;;;11.38;6.60;;;;;;;3.98;47.07;100102.00;5027397;28;20484;-71
2021/01/25 11:33:50;;;;;;;8.70;5.30;;;;;;;4.00;47.17;100108.19;5043450;28;20460;-70
2021/01/25 11:36:21;;;;;;;9.30;5.47;;;;;;;4.04;47.00;100114.22;5051247;28;20041;-69
2021/01/25 11:38:48;;;;;;;9.25;6.30;;;;;;;4.01;47.11;100120.75;5014566;28;20059;-69
2021/01/25 11:41:17;;;;;;;10.00;6.07;;;;;;;4.03;47.07;100120.59;5054195;28;20052;-70
2021/01/25 11:43:45;;;;;;;10.20;6.15;;;;;;;4.03;46.96;100124.19;5058751;28;20033;-69
2021/01/25 11:46:12;;;;;;;7.82;5.50;;;;;;;4.04;47.08;100125.03;5045712;28;20052;-69
2021/01/25 11:48:40;;;;;;;10.05;6.40;;;;;;;4.04;46.94;100136.75;5045802;28;20400;-70
2021/01/25 11:51:07;;;;;;;8.70;5.82;;;;;;;4.05;47.08;100135.78;5049040;28;20041;-69